Ds Blue Wave — A8YK2 — position and weather

sailwx.info

Track history (hours):
 
Tides and Currents Weather Stations Pressure Air Temp Water Temp Dewpoint Dewpoint Depression Visibility Wind Speed Wind Dir Waves Ship Positions

Ds Blue Wave

Last reported at 2015-Sep-03 22:31 UTC. Time now 2015-Sep-03 23:29 UTC.
Position N 31°23' E 121°34'.

Length 129 m; draft 6.6 m.

Type: Cargo ship. MMSI: 636092200.

Date/timePositionNaut miles runAvg speedWind from/ knotsBaromVisibWave heightAir tempDewpointWater temp
2015-Sep-03 22:31N 31°23' E 121°34'0 0.0
2015-Sep-03 21:25N 31°23' E 121°34'0 0.0
2015-Sep-03 20:22N 31°23' E 121°34'0 0.0
2015-Sep-03 19:07N 31°23' E 121°34'0 0.0
2015-Sep-03 18:33N 31°23' E 121°34'7 6.9
2015-Sep-03 17:33N 31°20' E 121°42'1414.3
2015-Sep-03 16:34N 31°09' E 121°53'1312.3
2015-Sep-03 15:32N 31°04' E 122°06'42512.8
2015-Sep-02 06:18N 33°41' E 129°54'26212.6
2015-Sep-01 09:32N 34°37' E 135°02'1111.6
2015-Sep-01 08:34N 34°38' E 135°16'3 3.3
2015-Sep-01 07:32N 34°41' E 135°15'0 0.0
2015-Sep-01 06:26N 34°41' E 135°15'0 0.0
2015-Sep-01 05:26N 34°41' E 135°15'0 0.0
2015-Sep-01 04:26N 34°41' E 135°15'0 0.0
2015-Sep-01 03:32N 34°41' E 135°15'0 0.0
2015-Sep-01 02:32N 34°41' E 135°15'0 0.0
2015-Sep-01 01:32N 34°41' E 135°15'0 0.0
2015-Sep-01 00:32N 34°41' E 135°15'0 0.0
2015-Aug-31 23:32N 34°41' E 135°15'1 1.2
2015-Aug-31 22:33N 34°40' E 135°15'2 1.8
2015-Aug-31 21:30N 34°38' E 135°17'0 0.0
2015-Aug-31 20:30N 34°38' E 135°17'0 0.1
2015-Aug-31 19:30N 34°38' E 135°17'0 0.1
2015-Aug-31 18:30N 34°38' E 135°17'0 0.0
2015-Aug-31 17:30N 34°38' E 135°17'0 0.1
2015-Aug-31 16:06N 34°38' E 135°17'0 0.0
2015-Aug-31 15:30N 34°38' E 135°17'0 0.0
2015-Aug-31 14:30N 34°38' E 135°17'0 0.0
2015-Aug-31 13:30N 34°38' E 135°17'0 0.0
2015-Aug-31 12:30N 34°38' E 135°17'0 0.0
2015-Aug-31 10:24N 34°38' E 135°17'6 6.9
2015-Aug-31 09:33N 34°39' E 135°24'  
2015-Aug-28 18:20N 31°06' E 122°22'1114.3
2015-Aug-28 17:34N 31°11' E 122°10'1514.5
2015-Aug-28 16:34N 31°16' E 121°54'1211.8
2015-Aug-28 15:33N 31°20' E 121°41'5 5.3
2015-Aug-28 14:32N 31°22' E 121°35'0 0.0
2015-Aug-28 13:23N 31°22' E 121°35'0 0.0
2015-Aug-28 12:29N 31°22' E 121°35'0 0.0
2015-Aug-28 11:32N 31°22' E 121°35'0 0.0
2015-Aug-28 10:32N 31°22' E 121°35'0 0.0
2015-Aug-28 09:32N 31°22' E 121°35'0 0.0
2015-Aug-28 08:32N 31°22' E 121°35'0 0.0
2015-Aug-28 07:29N 31°22' E 121°35'0 0.0
2015-Aug-28 04:32N 31°22' E 121°35'0 0.0
2015-Aug-28 03:14N 31°22' E 121°35'0 0.0
2015-Aug-28 02:32N 31°22' E 121°35'1 0.5
2015-Aug-28 01:33N 31°23' E 121°35'  
2015-Aug-25 09:09N 34°37' E 134°56'914.5
2015-Aug-25 08:33N 34°36' E 135°06'9 9.1
2015-Aug-25 07:33N 34°41' E 135°15'0 0.1
2015-Aug-25 06:28N 34°41' E 135°15'0 0.0
2015-Aug-25 05:22N 34°41' E 135°15'0 0.0
2015-Aug-25 04:28N 34°41' E 135°15'0 0.0
2015-Aug-25 03:28N 34°41' E 135°15'0 0.0
2015-Aug-25 02:28N 34°41' E 135°15'0 0.0
2015-Aug-25 00:16N 34°41' E 135°15'0 0.0
2015-Aug-24 23:22N 34°41' E 135°15'1 0.7
2015-Aug-24 22:33N 34°40' E 135°15'  
Track history (hours):
 
Tides and Currents Weather Stations Pressure Air Temp Water Temp Dewpoint Dewpoint Depression Visibility Wind Speed Wind Dir Waves Ship Positions

Ds Blue Wave

Last reported at 2015-Sep-03 22:31 UTC. Time now 2015-Sep-03 23:29 UTC.
Position N 31°23' E 121°34'.

Length 129 m; draft 6.6 m.

Type: Cargo ship. MMSI: 636092200.

Date/timePositionNaut miles runAvg speedWind from/ knotsBaromVisibWave heightAir tempDewpointWater temp
2015-Sep-03 22:31N 31°23' E 121°34'0 0.0
2015-Sep-03 21:25N 31°23' E 121°34'0 0.0
2015-Sep-03 20:22N 31°23' E 121°34'0 0.0
2015-Sep-03 19:07N 31°23' E 121°34'0 0.0
2015-Sep-03 18:33N 31°23' E 121°34'7 6.9
2015-Sep-03 17:33N 31°20' E 121°42'1414.3
2015-Sep-03 16:34N 31°09' E 121°53'1312.3
2015-Sep-03 15:32N 31°04' E 122°06'42512.8
2015-Sep-02 06:18N 33°41' E 129°54'26212.6
2015-Sep-01 09:32N 34°37' E 135°02'1111.6
2015-Sep-01 08:34N 34°38' E 135°16'3 3.3
2015-Sep-01 07:32N 34°41' E 135°15'0 0.0
2015-Sep-01 06:26N 34°41' E 135°15'0 0.0
2015-Sep-01 05:26N 34°41' E 135°15'0 0.0
2015-Sep-01 04:26N 34°41' E 135°15'0 0.0
2015-Sep-01 03:32N 34°41' E 135°15'0 0.0
2015-Sep-01 02:32N 34°41' E 135°15'0 0.0
2015-Sep-01 01:32N 34°41' E 135°15'0 0.0
2015-Sep-01 00:32N 34°41' E 135°15'0 0.0
2015-Aug-31 23:32N 34°41' E 135°15'1 1.2
2015-Aug-31 22:33N 34°40' E 135°15'2 1.8
2015-Aug-31 21:30N 34°38' E 135°17'0 0.0
2015-Aug-31 20:30N 34°38' E 135°17'0 0.1
2015-Aug-31 19:30N 34°38' E 135°17'0 0.1
2015-Aug-31 18:30N 34°38' E 135°17'0 0.0
2015-Aug-31 17:30N 34°38' E 135°17'0 0.1
2015-Aug-31 16:06N 34°38' E 135°17'0 0.0
2015-Aug-31 15:30N 34°38' E 135°17'0 0.0
2015-Aug-31 14:30N 34°38' E 135°17'0 0.0
2015-Aug-31 13:30N 34°38' E 135°17'0 0.0
2015-Aug-31 12:30N 34°38' E 135°17'0 0.0
2015-Aug-31 10:24N 34°38' E 135°17'6 6.9
2015-Aug-31 09:33N 34°39' E 135°24'  
2015-Aug-28 18:20N 31°06' E 122°22'1114.3
2015-Aug-28 17:34N 31°11' E 122°10'1514.5
2015-Aug-28 16:34N 31°16' E 121°54'1211.8
2015-Aug-28 15:33N 31°20' E 121°41'5 5.3
2015-Aug-28 14:32N 31°22' E 121°35'0 0.0
2015-Aug-28 13:23N 31°22' E 121°35'0 0.0
2015-Aug-28 12:29N 31°22' E 121°35'0 0.0
2015-Aug-28 11:32N 31°22' E 121°35'0 0.0
2015-Aug-28 10:32N 31°22' E 121°35'0 0.0
2015-Aug-28 09:32N 31°22' E 121°35'0 0.0
2015-Aug-28 08:32N 31°22' E 121°35'0 0.0
2015-Aug-28 07:29N 31°22' E 121°35'0 0.0
2015-Aug-28 04:32N 31°22' E 121°35'0 0.0
2015-Aug-28 03:14N 31°22' E 121°35'0 0.0
2015-Aug-28 02:32N 31°22' E 121°35'1 0.5
2015-Aug-28 01:33N 31°23' E 121°35'  
2015-Aug-25 09:09N 34°37' E 134°56'914.5
2015-Aug-25 08:33N 34°36' E 135°06'9 9.1
2015-Aug-25 07:33N 34°41' E 135°15'0 0.1
2015-Aug-25 06:28N 34°41' E 135°15'0 0.0
2015-Aug-25 05:22N 34°41' E 135°15'0 0.0
2015-Aug-25 04:28N 34°41' E 135°15'0 0.0
2015-Aug-25 03:28N 34°41' E 135°15'0 0.0
2015-Aug-25 02:28N 34°41' E 135°15'0 0.0
2015-Aug-25 00:16N 34°41' E 135°15'0 0.0
2015-Aug-24 23:22N 34°41' E 135°15'1 0.7
2015-Aug-24 22:33N 34°40' E 135°15'  

Dump ship's entire track history